createdAt,value
2022-08-22T00:02:37.187Z,94206.25
2022-08-22T00:02:58.023Z,94203.13
2022-08-22T00:03:01.812Z,94218.88
2022-08-22T00:05:24.235Z,94200.28
2022-08-22T00:08:07.592Z,94200.38
2022-08-22T00:10:43.259Z,94199.22
2022-08-22T00:13:19.728Z,94200.50
2022-08-22T00:16:09.176Z,94192.19
2022-08-22T00:18:51.052Z,94189.88
2022-08-22T00:21:27.312Z,94184.75
2022-08-22T00:24:15.436Z,94178.41
2022-08-22T00:27:00.779Z,94181.91
2022-08-22T00:29:45.674Z,94188.72
2022-08-22T00:32:26.299Z,94180.50
2022-08-22T00:35:17.502Z,94178.66
2022-08-22T00:38:02.653Z,94172.19
2022-08-22T00:40:52.614Z,94174.81
2022-08-22T00:43:31.215Z,94174.22
2022-08-22T00:46:00.554Z,94173.22
2022-08-22T00:48:50.966Z,94167.72
2022-08-22T00:51:40.374Z,94173.38
2022-08-22T00:54:34.709Z,94178.50
2022-08-22T00:57:26.236Z,94170.16
2022-08-22T01:00:17.315Z,94164.91
2022-08-22T01:03:21.524Z,94174.06
2022-08-22T01:06:09.538Z,94164.72
2022-08-22T01:08:51.279Z,94176.81
2022-08-22T01:11:17.816Z,94173.59
2022-08-22T01:13:55.942Z,94184.00
2022-08-22T01:16:35.085Z,94174.13
2022-08-22T01:19:39.345Z,94184.94
2022-08-22T01:22:25.753Z,94185.28
2022-08-22T01:25:29.322Z,94189.75
2022-08-22T01:28:38.651Z,94180.03
2022-08-22T01:31:32.132Z,94173.22
2022-08-22T01:34:27.125Z,94162.84
2022-08-22T01:37:12.029Z,94164.59
2022-08-22T01:40:22.983Z,94172.94
2022-08-22T01:43:16.508Z,94180.53
2022-08-22T01:45:58.618Z,94173.31
2022-08-22T01:49:10.632Z,94177.31
2022-08-22T01:51:46.267Z,94178.28
2022-08-22T01:54:26.637Z,94173.22
2022-08-22T01:57:01.294Z,94181.72
2022-08-22T01:59:42.401Z,94183.13
2022-08-22T02:02:12.214Z,94182.34
2022-08-22T02:04:48.342Z,94181.91
2022-08-22T02:07:17.585Z,94180.84
2022-08-22T02:10:04.405Z,94185.41
2022-08-22T02:12:56.848Z,94180.16
2022-08-22T02:15:35.184Z,94182.97
2022-08-22T02:18:09.114Z,94180.09
2022-08-22T02:20:47.722Z,94182.75
2022-08-22T02:23:23.153Z,94180.75
2022-08-22T02:26:03.331Z,94180.75
2022-08-22T02:28:39.032Z,94182.94
2022-08-22T02:31:36.566Z,94185.84
2022-08-22T02:34:20.367Z,94184.34
2022-08-22T02:36:53.848Z,94179.38
2022-08-22T02:40:27.412Z,94157.53
2022-08-22T02:43:15.504Z,94173.97
2022-08-22T02:46:02.048Z,94172.13
2022-08-22T02:48:45.018Z,94176.44
2022-08-22T02:51:39.659Z,94170.09
2022-08-22T02:54:24.799Z,94174.88
2022-08-22T02:57:11.397Z,94176.91
2022-08-22T02:59:59.249Z,94166.78
2022-08-22T03:02:33.699Z,94167.41
2022-08-22T03:05:16.478Z,94167.69
2022-08-22T03:07:59.777Z,94168.19
2022-08-22T03:10:35.137Z,94156.91
2022-08-22T03:13:12.462Z,94162.16
2022-08-22T03:16:03.818Z,94165.41
2022-08-22T03:18:48.608Z,94162.97
2022-08-22T03:21:30.402Z,94160.19
2022-08-22T03:24:25.574Z,94164.03
2022-08-22T03:26:59.842Z,94163.09
2022-08-22T03:29:38.400Z,94164.78
2022-08-22T03:32:12.820Z,94170.63
2022-08-22T03:34:55.053Z,94161.50
2022-08-22T03:37:32.321Z,94172.72
2022-08-22T03:40:19.967Z,94176.69
2022-08-22T03:42:55.969Z,94171.59
2022-08-22T03:45:38.576Z,94170.97
2022-08-22T03:48:23.474Z,94169.41
2022-08-22T03:50:55.896Z,94172.38
2022-08-22T03:53:46.152Z,94169.41
2022-08-22T03:57:00.561Z,94173.00
2022-08-22T03:59:57.976Z,94171.63
2022-08-22T04:02:44.512Z,94176.72
2022-08-22T04:05:13.015Z,94183.38
2022-08-22T04:07:50.723Z,94180.59
2022-08-22T04:10:28.923Z,94189.09
2022-08-22T04:13:49.348Z,94191.44
2022-08-22T04:16:52.190Z,94189.31
2022-08-22T04:19:24.829Z,94189.63
2022-08-22T04:22:07.790Z,94192.69
2022-08-22T04:24:52.879Z,94185.75
2022-08-22T04:27:29.323Z,94195.28
2022-08-22T04:30:14.607Z,94198.25
2022-08-22T04:32:48.986Z,94196.09
2022-08-22T04:35:43.064Z,94198.56
2022-08-22T04:38:48.313Z,94204.31
2022-08-22T04:41:24.360Z,94199.97
2022-08-22T04:43:58.933Z,94200.31
2022-08-22T04:46:38.800Z,94197.25
2022-08-22T04:49:09.747Z,94201.50
2022-08-22T04:51:47.631Z,94202.22
2022-08-22T04:54:32.676Z,94202.16
2022-08-22T04:57:21.430Z,94206.56
2022-08-22T04:59:49.827Z,94200.31
2022-08-22T05:02:25.066Z,94207.69
2022-08-22T05:05:13.338Z,94214.25
2022-08-22T05:07:46.770Z,94209.81
2022-08-22T05:10:20.950Z,94212.69
2022-08-22T05:13:00.499Z,94217.69
2022-08-22T05:15:33.410Z,94220.25
2022-08-22T05:18:09.422Z,94227.94
2022-08-22T05:20:40.373Z,94232.25
2022-08-22T05:23:30.046Z,94234.34
2022-08-22T05:26:01.841Z,94230.56
2022-08-22T05:28:34.462Z,94231.56
2022-08-22T05:31:09.375Z,94230.41
2022-08-22T05:33:45.563Z,94235.47
2022-08-22T05:36:19.574Z,94238.81
2022-08-22T05:38:51.414Z,94235.34
2022-08-22T05:41:26.879Z,94241.47
2022-08-22T05:43:55.305Z,94239.75
2022-08-22T05:46:43.243Z,94244.78
2022-08-22T05:49:20.878Z,94245.66
2022-08-22T05:52:02.718Z,94243.50
2022-08-22T05:54:34.673Z,94238.34
2022-08-22T05:57:18.792Z,94242.63
2022-08-22T05:59:49.819Z,94243.84
2022-08-22T06:02:21.547Z,94243.50
2022-08-22T06:04:54.706Z,94248.56
2022-08-22T06:07:31.205Z,94247.91
2022-08-22T06:10:26.449Z,94250.66
2022-08-22T06:13:42.430Z,94248.78
2022-08-22T06:16:21.494Z,94247.59
2022-08-22T06:18:50.842Z,94242.31
2022-08-22T06:21:26.293Z,94245.28
2022-08-22T06:23:57.522Z,94243.34
2022-08-22T06:26:30.951Z,94247.91
2022-08-22T06:29:00.672Z,94247.91
2022-08-22T06:31:34.544Z,94254.06
2022-08-22T06:34:39.939Z,94252.13
2022-08-22T06:37:16.917Z,94243.38
2022-08-22T06:39:49.298Z,94247.31
2022-08-22T06:42:30.571Z,94252.78
2022-08-22T06:45:02.854Z,94256.75
2022-08-22T06:47:36.256Z,94256.16
2022-08-22T06:50:13.623Z,94259.88
2022-08-22T06:53:00.818Z,94253.63
2022-08-22T06:55:30.076Z,94263.94
2022-08-22T06:58:03.954Z,94257.16
2022-08-22T07:00:34.613Z,94258.25
2022-08-22T07:03:20.414Z,94256.22
2022-08-22T07:05:47.341Z,94260.28
2022-08-22T07:08:19.029Z,94261.25
2022-08-22T07:10:59.732Z,94262.31
2022-08-22T07:13:28.352Z,94259.13
2022-08-22T07:15:59.106Z,94256.03
2022-08-22T07:18:28.172Z,94258.84
2022-08-22T07:21:04.172Z,94263.13
2022-08-22T07:23:36.133Z,94266.19
2022-08-22T07:26:22.591Z,94267.81
2022-08-22T07:29:24.051Z,94271.25
2022-08-22T07:31:53.278Z,94268.47
2022-08-22T07:34:38.089Z,94274.94
2022-08-22T07:37:14.444Z,94280.00
2022-08-22T07:39:54.162Z,94274.44
2022-08-22T07:42:30.353Z,94272.84
2022-08-22T07:45:06.921Z,94267.81
2022-08-22T07:47:49.740Z,94264.28
2022-08-22T07:50:22.975Z,94266.75
2022-08-22T07:52:50.871Z,94262.38
2022-08-22T07:55:22.867Z,94265.63
2022-08-22T07:58:04.011Z,94269.59
2022-08-22T08:00:32.425Z,94268.16
2022-08-22T08:03:04.432Z,94277.44
2022-08-22T08:05:35.910Z,94283.66
2022-08-22T08:08:08.870Z,94279.63
2022-08-22T08:10:42.507Z,94289.16
2022-08-22T08:13:14.723Z,94287.72
2022-08-22T08:15:45.810Z,94283.97
2022-08-22T08:18:19.176Z,94288.72
2022-08-22T08:20:54.642Z,94288.63
2022-08-22T08:23:23.321Z,94288.28
2022-08-22T08:25:53.886Z,94286.81
2022-08-22T08:28:34.619Z,94280.50
2022-08-22T08:31:09.824Z,94282.50
2022-08-22T08:33:42.056Z,94274.34
2022-08-22T08:36:21.574Z,94286.00
2022-08-22T08:38:58.119Z,94288.38
2022-08-22T08:41:50.846Z,94287.78
2022-08-22T08:44:40.883Z,94286.84
2022-08-22T08:47:25.846Z,94287.75
2022-08-22T08:49:55.166Z,94286.09
2022-08-22T08:52:39.137Z,94285.53
2022-08-22T08:55:21.849Z,94295.22
2022-08-22T08:58:21.561Z,94293.53
2022-08-22T09:01:02.442Z,94284.72
2022-08-22T09:04:01.174Z,94286.44
2022-08-22T09:07:01.935Z,94289.28
2022-08-22T09:09:41.591Z,94287.22
2022-08-22T09:12:26.291Z,94285.47
2022-08-22T09:15:27.033Z,94286.41
2022-08-22T09:18:24.364Z,94277.53
2022-08-22T09:21:27.597Z,94287.56
2022-08-22T09:24:16.260Z,94288.09
2022-08-22T09:26:57.116Z,94284.09
2022-08-22T09:29:30.130Z,94287.19
2022-08-22T09:35:08.043Z,94284.28
2022-08-22T09:37:49.843Z,94290.41
2022-08-22T09:40:29.251Z,94287.47
2022-08-22T09:43:14.128Z,94282.59
2022-08-22T09:46:03.083Z,94277.38
2022-08-22T09:48:48.669Z,94283.56
2022-08-22T09:51:32.709Z,94284.00
2022-08-22T09:54:53.202Z,94280.22
2022-08-22T09:57:28.649Z,94274.63
2022-08-22T10:00:13.947Z,94284.94
2022-08-22T10:03:03.304Z,94283.13
2022-08-22T10:05:48.121Z,94283.19
2022-08-22T10:08:14.764Z,94285.94
2022-08-22T10:11:06.507Z,94283.34
2022-08-22T10:13:57.720Z,94279.22
2022-08-22T10:16:52.079Z,94284.16
2022-08-22T10:19:36.236Z,94285.59
2022-08-22T10:22:30.043Z,94286.66
2022-08-22T10:25:09.521Z,94279.81
2022-08-22T10:28:02.948Z,94278.50
2022-08-22T10:30:54.907Z,94276.00
2022-08-22T10:33:21.471Z,94276.47
2022-08-22T10:36:12.960Z,94275.78
2022-08-22T10:38:46.788Z,94280.75
2022-08-22T10:41:32.311Z,94272.78
2022-08-22T10:44:13.915Z,94276.59
2022-08-22T10:46:51.879Z,94273.94
2022-08-22T10:49:31.958Z,94275.88
2022-08-22T10:52:39.705Z,94278.56
2022-08-22T10:55:11.420Z,94271.34
2022-08-22T10:57:53.147Z,94265.59
2022-08-22T11:00:35.039Z,94262.91
2022-08-22T11:03:21.844Z,94269.00
2022-08-22T11:05:53.376Z,94266.34
2022-08-22T11:08:34.870Z,94252.25
2022-08-22T11:11:35.378Z,94264.78
2022-08-22T11:14:12.077Z,94267.41
2022-08-22T11:16:55.005Z,94255.91
2022-08-22T11:19:28.097Z,94256.25
2022-08-22T11:22:22.360Z,94260.31
2022-08-22T11:25:11.746Z,94254.03
2022-08-22T11:28:06.316Z,94246.28
2022-08-22T11:31:07.172Z,94237.03
2022-08-22T11:33:46.966Z,94239.88
2022-08-22T11:36:26.167Z,94239.41
2022-08-22T11:39:13.836Z,94231.34
2022-08-22T11:41:48.459Z,94229.28
2022-08-22T11:44:50.881Z,94230.69
2022-08-22T11:47:26.509Z,94232.25
2022-08-22T11:50:14.056Z,94232.06
2022-08-22T11:52:56.726Z,94229.25
2022-08-22T11:55:36.532Z,94223.00
2022-08-22T11:58:12.574Z,94217.47
2022-08-22T12:00:50.740Z,94221.66
2022-08-22T12:03:35.772Z,94213.44
2022-08-22T12:06:17.632Z,94207.97
2022-08-22T12:08:49.576Z,94206.63
2022-08-22T12:11:30.483Z,94210.97
2022-08-22T12:14:03.893Z,94207.28
2022-08-22T12:16:54.978Z,94210.22
2022-08-22T12:19:33.167Z,94204.31
2022-08-22T12:22:28.962Z,94205.31
2022-08-22T12:25:30.363Z,94199.81
2022-08-22T12:28:36.559Z,94203.78
2022-08-22T12:31:05.788Z,94203.66
2022-08-22T12:33:46.322Z,94198.06
2022-08-22T12:36:20.896Z,94198.06
2022-08-22T12:39:15.361Z,94187.44
2022-08-22T12:42:09.848Z,94186.38
2022-08-22T12:44:42.795Z,94190.56
2022-08-22T12:47:32.056Z,94180.09
2022-08-22T12:50:31.569Z,94179.34
2022-08-22T12:53:22.932Z,94176.97
2022-08-22T12:56:05.005Z,94165.09
2022-08-22T12:59:00.990Z,94172.72
2022-08-22T13:01:39.174Z,94166.72
2022-08-22T13:04:32.511Z,94172.38
2022-08-22T13:07:24.639Z,94171.94
2022-08-22T13:09:59.341Z,94175.72
2022-08-22T13:12:36.982Z,94175.56
2022-08-22T13:15:31.791Z,94176.78
2022-08-22T13:18:25.089Z,94179.66
2022-08-22T13:20:51.444Z,94168.47
2022-08-22T13:23:24.857Z,94174.72
2022-08-22T13:26:10.520Z,94165.53
2022-08-22T13:32:00.474Z,94167.38
2022-08-22T13:34:38.455Z,94170.53
2022-08-22T13:37:11.497Z,94170.97
2022-08-22T13:39:42.566Z,94177.59
2022-08-22T13:42:20.383Z,94180.84
2022-08-22T13:45:02.670Z,94172.06
2022-08-22T13:47:32.484Z,94174.81
2022-08-22T13:50:19.215Z,94183.41
2022-08-22T13:53:10.628Z,94177.59
2022-08-22T13:55:51.377Z,94176.00
2022-08-22T13:58:46.607Z,94174.47
2022-08-22T14:01:37.879Z,94170.31
2022-08-22T14:04:35.868Z,94164.97
2022-08-22T14:07:06.004Z,94159.91
2022-08-22T14:09:54.295Z,94165.41
2022-08-22T14:12:51.012Z,94152.28
2022-08-22T14:15:44.668Z,94154.03
2022-08-22T14:18:30.589Z,94164.97
2022-08-22T14:21:40.575Z,94153.53
2022-08-22T14:24:19.893Z,94158.00
2022-08-22T14:26:53.894Z,94153.53
2022-08-22T14:29:29.017Z,94149.19
2022-08-22T14:32:11.988Z,94149.06
2022-08-22T14:34:42.701Z,94157.03
2022-08-22T14:37:21.720Z,94159.69
2022-08-22T14:39:56.784Z,94160.19
2022-08-22T14:42:30.450Z,94151.09
2022-08-22T14:45:11.361Z,94162.53
2022-08-22T14:47:55.676Z,94150.63
2022-08-22T14:50:43.464Z,94148.56
2022-08-22T14:53:24.963Z,94153.13
2022-08-22T14:56:27.838Z,94153.50
2022-08-22T14:59:02.326Z,94154.88
2022-08-22T15:01:32.845Z,94152.41
2022-08-22T15:04:02.726Z,94155.41
2022-08-22T15:06:37.076Z,94155.41
2022-08-22T15:09:26.617Z,94149.91
2022-08-22T15:11:53.458Z,94155.94
2022-08-22T15:14:27.227Z,94142.81
2022-08-22T15:16:57.659Z,94152.28
2022-08-22T15:19:34.621Z,94141.94
2022-08-22T15:22:13.890Z,94155.06
2022-08-22T15:24:50.799Z,94144.06
2022-08-22T15:27:25.302Z,94144.00
2022-08-22T15:30:02.566Z,94144.81
2022-08-22T15:32:31.625Z,94143.25
2022-08-22T15:35:08.818Z,94137.59
2022-08-22T15:37:54.106Z,94136.59
2022-08-22T15:40:40.619Z,94130.97
2022-08-22T15:43:28.886Z,94120.81
2022-08-22T15:46:32.949Z,94123.88
2022-08-22T15:49:19.469Z,94124.84
2022-08-22T15:52:13.082Z,94110.50
2022-08-22T15:54:46.757Z,94116.50
2022-08-22T15:57:25.606Z,94119.03
2022-08-22T15:59:58.750Z,94114.84
2022-08-22T16:02:28.689Z,94111.06
2022-08-22T16:05:07.347Z,94111.88
2022-08-22T16:07:39.790Z,94109.31
2022-08-22T16:10:30.080Z,94104.66
2022-08-22T16:13:34.103Z,94108.59
2022-08-22T16:16:45.121Z,94105.13
2022-08-22T16:19:24.402Z,94107.38
2022-08-22T16:21:54.220Z,94103.94
2022-08-22T16:24:21.720Z,94110.53
2022-08-22T16:26:48.893Z,94110.25
2022-08-22T16:29:41.599Z,94109.69
2022-08-22T16:32:11.387Z,94105.91
2022-08-22T16:34:37.973Z,94103.56
2022-08-22T16:37:14.591Z,94110.22
2022-08-22T16:40:03.318Z,94109.13
2022-08-22T16:43:14.855Z,94102.97
2022-08-22T16:45:48.541Z,94111.16
2022-08-22T16:48:35.433Z,94110.31
2022-08-22T16:51:13.592Z,94111.25
2022-08-22T16:53:45.973Z,94109.09
2022-08-22T16:56:28.441Z,94110.31
2022-08-22T16:59:44.697Z,94118.06
2022-08-22T17:02:26.992Z,94112.41
2022-08-22T17:04:59.439Z,94108.78
2022-08-22T17:07:47.421Z,94105.72
2022-08-22T17:10:37.718Z,94114.13
2022-08-22T17:13:27.497Z,94110.78
2022-08-22T17:16:32.403Z,94115.47
2022-08-22T17:18:58.946Z,94124.44
2022-08-22T17:21:51.709Z,94123.97
2022-08-22T17:24:33.479Z,94124.25
2022-08-22T17:27:08.176Z,94124.63
2022-08-22T17:29:40.048Z,94116.88
2022-08-22T17:32:09.566Z,94131.94
2022-08-22T17:35:02.246Z,94131.28
2022-08-22T17:37:41.056Z,94129.09
2022-08-22T17:40:17.688Z,94131.41
2022-08-22T17:43:21.545Z,94129.59
2022-08-22T17:46:06.319Z,94133.94
2022-08-22T17:48:48.077Z,94136.28
2022-08-22T17:51:30.498Z,94133.69
2022-08-22T17:54:06.179Z,94135.66
2022-08-22T17:56:43.775Z,94137.97
2022-08-22T17:59:23.482Z,94147.09
2022-08-22T18:01:57.793Z,94142.53
2022-08-22T18:05:04.723Z,94147.09
2022-08-22T18:07:53.286Z,94149.38
2022-08-22T18:10:28.632Z,94156.94
2022-08-22T18:13:27.480Z,94152.31
2022-08-22T18:16:27.131Z,94156.78
2022-08-22T18:19:11.821Z,94160.47
2022-08-22T18:21:50.641Z,94167.22
2022-08-22T18:24:33.270Z,94164.09
2022-08-22T18:27:09.449Z,94162.50
2022-08-22T18:30:11.513Z,94171.84
2022-08-22T18:32:48.537Z,94176.31
2022-08-22T18:35:21.943Z,94172.81
2022-08-22T18:37:48.528Z,94173.50
2022-08-22T18:40:33.402Z,94182.13
2022-08-22T18:43:13.583Z,94177.47
2022-08-22T18:45:45.935Z,94179.66
2022-08-22T18:48:26.459Z,94182.25
2022-08-22T18:51:13.486Z,94197.69
2022-08-22T18:53:50.522Z,94189.16
2022-08-22T18:57:04.103Z,94198.59
2022-08-22T18:59:43.815Z,94207.25
2022-08-22T19:02:39.607Z,94209.44
2022-08-22T19:05:21.683Z,94209.00
2022-08-22T19:08:07.132Z,94213.53
2022-08-22T19:10:39.354Z,94210.47
2022-08-22T19:13:11.664Z,94215.72
2022-08-22T19:15:48.891Z,94223.94
2022-08-22T19:18:27.104Z,94221.94
2022-08-22T19:21:31.866Z,94227.41
2022-08-22T19:23:58.850Z,94223.03
2022-08-22T19:26:33.704Z,94224.75
2022-08-22T19:29:08.775Z,94230.34
2022-08-22T19:31:41.773Z,94237.47
2022-08-22T19:34:29.347Z,94230.59
2022-08-22T19:37:32.015Z,94231.19
2022-08-22T19:40:07.391Z,94235.50
2022-08-22T19:42:38.299Z,94241.06
2022-08-22T19:45:29.283Z,94229.31
2022-08-22T19:48:00.703Z,94232.59
2022-08-22T19:50:33.046Z,94241.09
2022-08-22T19:53:05.675Z,94236.78
2022-08-22T19:55:37.971Z,94248.84
2022-08-22T19:58:35.399Z,94246.16
2022-08-22T20:01:28.203Z,94244.53
2022-08-22T20:04:01.083Z,94238.75
2022-08-22T20:06:44.263Z,94251.19
2022-08-22T20:09:23.545Z,94244.97
2022-08-22T20:12:25.727Z,94232.91
2022-08-22T20:14:52.551Z,94248.53
2022-08-22T20:17:25.171Z,94244.72
2022-08-22T20:20:17.768Z,94245.03
2022-08-22T20:23:15.803Z,94255.50
2022-08-22T20:25:48.712Z,94252.28
2022-08-22T20:28:46.553Z,94254.00
2022-08-22T20:31:22.322Z,94258.72
2022-08-22T20:33:58.050Z,94250.56
2022-08-22T20:36:28.394Z,94255.25
2022-08-22T20:39:01.675Z,94255.44
2022-08-22T20:41:35.705Z,94253.41
2022-08-22T20:44:21.735Z,94256.16
2022-08-22T20:46:53.164Z,94262.28
2022-08-22T20:49:24.763Z,94252.59
2022-08-22T20:52:21.535Z,94253.25
2022-08-22T20:55:24.104Z,94257.34
2022-08-22T20:58:01.102Z,94258.03
2022-08-22T21:00:49.733Z,94242.66
2022-08-22T21:03:49.961Z,94236.81
2022-08-22T21:06:20.076Z,94248.63
2022-08-22T21:09:08.516Z,94248.63
2022-08-22T21:11:40.736Z,94249.91
2022-08-22T21:14:21.448Z,94255.19
2022-08-22T21:16:48.370Z,94250.28
2022-08-22T21:19:20.873Z,94255.19
2022-08-22T21:21:47.616Z,94256.38
2022-08-22T21:24:14.235Z,94251.47
2022-08-22T21:26:49.923Z,94251.00
2022-08-22T21:29:16.515Z,94258.19
2022-08-22T21:32:09.596Z,94267.53
2022-08-22T21:34:42.559Z,94256.03
2022-08-22T21:37:14.348Z,94248.72
2022-08-22T21:39:49.198Z,94262.09
2022-08-22T21:42:25.003Z,94258.34
2022-08-22T21:44:58.383Z,94257.22
2022-08-22T21:47:37.296Z,94270.09
2022-08-22T21:50:12.957Z,94267.88
2022-08-22T21:52:46.682Z,94264.03
2022-08-22T21:55:26.604Z,94268.97
2022-08-22T21:58:12.532Z,94264.88
2022-08-22T22:00:51.664Z,94276.56
2022-08-22T22:03:27.297Z,94266.69
2022-08-22T22:05:58.044Z,94273.06
2022-08-22T22:08:25.860Z,94274.19
2022-08-22T22:11:01.943Z,94277.66
2022-08-22T22:13:31.410Z,94280.31
2022-08-22T22:15:58.207Z,94265.41
2022-08-22T22:18:29.713Z,94270.66
2022-08-22T22:20:57.268Z,94279.50
2022-08-22T22:23:25.165Z,94271.41
2022-08-22T22:25:54.358Z,94274.53
2022-08-22T22:28:29.025Z,94274.00
2022-08-22T22:30:56.024Z,94275.59
2022-08-22T22:33:25.732Z,94280.00
2022-08-22T22:35:54.377Z,94280.66
2022-08-22T22:38:24.098Z,94268.78
2022-08-22T22:40:52.030Z,94270.03
2022-08-22T22:43:19.289Z,94269.59
2022-08-22T22:45:46.105Z,94267.97
2022-08-22T22:48:15.750Z,94259.50
2022-08-22T22:50:53.054Z,94267.78
2022-08-22T22:53:21.445Z,94276.34
2022-08-22T22:56:00.706Z,94274.78
2022-08-22T22:58:28.611Z,94265.50
2022-08-22T23:00:56.528Z,94264.59
2022-08-22T23:03:23.385Z,94260.66
2022-08-22T23:05:49.972Z,94270.13
2022-08-22T23:08:16.575Z,94269.34
2022-08-22T23:10:43.147Z,94271.19
2022-08-22T23:13:09.987Z,94268.56
2022-08-22T23:15:37.162Z,94270.13
2022-08-22T23:18:03.852Z,94270.88
2022-08-22T23:20:30.493Z,94266.81
2022-08-22T23:22:57.134Z,94269.44
2022-08-22T23:25:24.061Z,94268.34
2022-08-22T23:27:52.592Z,94264.19
2022-08-22T23:30:20.710Z,94268.56
2022-08-22T23:32:47.594Z,94269.88
2022-08-22T23:35:14.222Z,94270.22
2022-08-22T23:37:40.835Z,94275.72
2022-08-22T23:40:09.363Z,94264.88
2022-08-22T23:42:36.144Z,94273.44
2022-08-22T23:45:03.287Z,94272.34
2022-08-22T23:47:30.007Z,94278.00
2022-08-22T23:49:56.805Z,94273.50
2022-08-22T23:52:23.469Z,94267.69
2022-08-22T23:54:54.517Z,94280.84
2022-08-22T23:57:26.574Z,94275.78
2022-08-22T23:59:57.997Z,94279.28
